sensor_id;sensor_type;location;lat;lon;timestamp;pressure;altitude;pressure_sealevel;temperature;humidity
22651;BME280;11492;42.646;23.400;2024-01-15T00:01:49;94479.59;;;-2.00;67.94
22651;BME280;11492;42.646;23.400;2024-01-15T00:04:15;94514.25;;;-1.81;68.22
22651;BME280;11492;42.646;23.400;2024-01-15T00:06:40;94499.44;;;-1.85;67.86
22651;BME280;11492;42.646;23.400;2024-01-15T00:09:06;94506.88;;;-1.73;67.60
22651;BME280;11492;42.646;23.400;2024-01-15T00:11:33;94477.28;;;-1.93;67.60
22651;BME280;11492;42.646;23.400;2024-01-15T00:13:59;94495.72;;;-1.81;67.21
22651;BME280;11492;42.646;23.400;2024-01-15T00:16:24;94500.78;;;-1.81;67.50
22651;BME280;11492;42.646;23.400;2024-01-15T00:18:50;94493.94;;;-1.90;67.20
22651;BME280;11492;42.646;23.400;2024-01-15T00:21:16;94502.31;;;-1.90;67.98
22651;BME280;11492;42.646;23.400;2024-01-15T00:23:44;94500.28;;;-1.96;67.96
22651;BME280;11492;42.646;23.400;2024-01-15T00:26:10;94472.72;;;-2.09;67.58
22651;BME280;11492;42.646;23.400;2024-01-15T00:28:37;94503.34;;;-1.92;67.89
22651;BME280;11492;42.646;23.400;2024-01-15T00:31:06;94499.03;;;-2.01;67.77
22651;BME280;11492;42.646;23.400;2024-01-15T00:33:32;94506.47;;;-1.99;67.90
22651;BME280;11492;42.646;23.400;2024-01-15T00:35:57;94528.09;;;-2.06;67.75
22651;BME280;11492;42.646;23.400;2024-01-15T00:38:23;94464.25;;;-2.30;68.16
22651;BME280;11492;42.646;23.400;2024-01-15T00:40:49;94501.66;;;-2.13;67.63
22651;BME280;11492;42.646;23.400;2024-01-15T00:43:14;94507.91;;;-2.17;67.63
22651;BME280;11492;42.646;23.400;2024-01-15T00:45:40;94504.19;;;-2.13;68.14
22651;BME280;11492;42.646;23.400;2024-01-15T00:48:06;94505.47;;;-2.19;68.25
22651;BME280;11492;42.646;23.400;2024-01-15T00:50:32;94501.47;;;-2.21;68.45
22651;BME280;11492;42.646;23.400;2024-01-15T00:52:58;94511.44;;;-2.20;68.36
22651;BME280;11492;42.646;23.400;2024-01-15T00:55:23;94501.47;;;-2.21;68.50
22651;BME280;11492;42.646;23.400;2024-01-15T00:57:49;94490.44;;;-2.31;69.20
22651;BME280;11492;42.646;23.400;2024-01-15T01:00:15;94505.00;;;-2.24;69.53
22651;BME280;11492;42.646;23.400;2024-01-15T01:02:41;94495.03;;;-2.25;69.19
22651;BME280;11492;42.646;23.400;2024-01-15T01:05:07;94498.81;;;-2.20;69.63
22651;BME280;11492;42.646;23.400;2024-01-15T01:07:32;94511.44;;;-2.20;69.05
22651;BME280;11492;42.646;23.400;2024-01-15T01:09:58;94470.94;;;-2.40;68.84
22651;BME280;11492;42.646;23.400;2024-01-15T01:12:24;94493.56;;;-2.27;69.15
22651;BME280;11492;42.646;23.400;2024-01-15T01:14:49;94456.84;;;-2.53;69.78
22651;BME280;11492;42.646;23.400;2024-01-15T01:17:15;94498.69;;;-2.29;69.60
22651;BME280;11492;42.646;23.400;2024-01-15T01:19:40;94504.69;;;-2.30;68.95
22651;BME280;11492;42.646;23.400;2024-01-15T01:22:06;94503.22;;;-2.32;69.80
22651;BME280;11492;42.646;23.400;2024-01-15T01:24:33;94477.84;;;-2.42;69.74
22651;BME280;11492;42.646;23.400;2024-01-15T01:26:59;94464.28;;;-2.51;69.80
22651;BME280;11492;42.646;23.400;2024-01-15T01:29:24;94483.00;;;-2.32;69.44
22651;BME280;11492;42.646;23.400;2024-01-15T01:31:51;94479.22;;;-2.38;69.16
22651;BME280;11492;42.646;23.400;2024-01-15T01:34:17;94471.19;;;-2.43;68.85
22651;BME280;11492;42.646;23.400;2024-01-15T01:36:43;94466.13;;;-2.43;69.44
22651;BME280;11492;42.646;23.400;2024-01-15T01:39:09;94457.72;;;-2.54;69.14
22651;BME280;11492;42.646;23.400;2024-01-15T01:41:35;94453.94;;;-2.59;69.11
22651;BME280;11492;42.646;23.400;2024-01-15T01:44:01;94479.66;;;-2.44;69.69
22651;BME280;11492;42.646;23.400;2024-01-15T01:46:27;94488.41;;;-2.48;70.61
22651;BME280;11492;42.646;23.400;2024-01-15T01:48:55;94476.44;;;-2.46;69.80
22651;BME280;11492;42.646;23.400;2024-01-15T01:51:22;94473.47;;;-2.50;69.60
22651;BME280;11492;42.646;23.400;2024-01-15T01:53:50;94462.44;;;-2.60;70.52
22651;BME280;11492;42.646;23.400;2024-01-15T01:56:17;94478.06;;;-2.45;70.17
22651;BME280;11492;42.646;23.400;2024-01-15T01:58:44;94453.06;;;-2.58;70.35
22651;BME280;11492;42.646;23.400;2024-01-15T02:01:11;94478.06;;;-2.45;70.67
22651;BME280;11492;42.646;23.400;2024-01-15T02:03:39;94470.47;;;-2.45;70.51
22651;BME280;11492;42.646;23.400;2024-01-15T02:06:06;94454.66;;;-2.47;70.16
22651;BME280;11492;42.646;23.400;2024-01-15T02:08:31;94448.47;;;-2.53;70.28
22651;BME280;11492;42.646;23.400;2024-01-15T02:10:57;94423.66;;;-2.59;70.09
22651;BME280;11492;42.646;23.400;2024-01-15T02:13:23;94424.44;;;-2.59;70.22
22651;BME280;11492;42.646;23.400;2024-01-15T02:15:49;94437.41;;;-2.42;70.23
22651;BME280;11492;42.646;23.400;2024-01-15T02:18:14;94407.50;;;-2.68;70.94
22651;BME280;11492;42.646;23.400;2024-01-15T02:20:40;94439.84;;;-2.51;71.05
22651;BME280;11492;42.646;23.400;2024-01-15T02:23:12;94422.97;;;-2.50;71.07
22651;BME280;11492;42.646;23.400;2024-01-15T02:25:46;94405.41;;;-2.52;70.88
22651;BME280;11492;42.646;23.400;2024-01-15T02:28:17;94427.97;;;-2.29;70.43
22651;BME280;11492;42.646;23.400;2024-01-15T02:30:43;94424.28;;;-2.25;69.93
22651;BME280;11492;42.646;23.400;2024-01-15T02:33:10;94415.78;;;-2.24;70.20
22651;BME280;11492;42.646;23.400;2024-01-15T02:35:36;94382.59;;;-2.20;70.26
22651;BME280;11492;42.646;23.400;2024-01-15T02:38:03;94367.34;;;-2.29;69.37
22651;BME280;11492;42.646;23.400;2024-01-15T02:40:30;94350.75;;;-2.42;69.91
22651;BME280;11492;42.646;23.400;2024-01-15T02:42:56;94370.59;;;-2.38;69.29
22651;BME280;11492;42.646;23.400;2024-01-15T02:45:23;94386.06;;;-2.31;69.84
22651;BME280;11492;42.646;23.400;2024-01-15T02:47:49;94392.50;;;-2.27;69.47
22651;BME280;11492;42.646;23.400;2024-01-15T02:50:15;94374.81;;;-2.38;69.37
22651;BME280;11492;42.646;23.400;2024-01-15T02:52:41;94363.94;;;-2.49;69.71
22651;BME280;11492;42.646;23.400;2024-01-15T02:55:07;94380.22;;;-2.32;69.63
22651;BME280;11492;42.646;23.400;2024-01-15T02:57:34;94366.00;;;-2.33;69.81
22651;BME280;11492;42.646;23.400;2024-01-15T02:59:59;94381.56;;;-2.17;69.62
22651;BME280;11492;42.646;23.400;2024-01-15T03:02:25;94369.47;;;-2.14;69.27
22651;BME280;11492;42.646;23.400;2024-01-15T03:04:51;94360.78;;;-2.21;68.93
22651;BME280;11492;42.646;23.400;2024-01-15T03:07:17;94377.50;;;-2.09;69.49
22651;BME280;11492;42.646;23.400;2024-01-15T03:09:43;94371.63;;;-2.09;69.05
22651;BME280;11492;42.646;23.400;2024-01-15T03:12:09;94386.44;;;-2.05;69.00
22651;BME280;11492;42.646;23.400;2024-01-15T03:14:35;94383.91;;;-2.05;70.22
22651;BME280;11492;42.646;23.400;2024-01-15T03:17:01;94395.03;;;-1.97;70.21
22651;BME280;11492;42.646;23.400;2024-01-15T03:19:27;94383.06;;;-1.95;69.36
22651;BME280;11492;42.646;23.400;2024-01-15T03:21:52;94381.34;;;-1.94;69.95
22651;BME280;11492;42.646;23.400;2024-01-15T03:24:18;94363.56;;;-2.03;69.59
22651;BME280;11492;42.646;23.400;2024-01-15T03:26:44;94371.28;;;-2.05;70.10
22651;BME280;11492;42.646;23.400;2024-01-15T03:29:09;94382.81;;;-1.92;69.35
22651;BME280;11492;42.646;23.400;2024-01-15T03:31:35;94346.81;;;-2.04;69.41
22651;BME280;11492;42.646;23.400;2024-01-15T03:34:01;94356.13;;;-1.85;69.22
22651;BME280;11492;42.646;23.400;2024-01-15T03:36:26;94358.59;;;-1.94;69.58
22651;BME280;11492;42.646;23.400;2024-01-15T03:38:52;94365.59;;;-1.98;70.28
22651;BME280;11492;42.646;23.400;2024-01-15T03:41:18;94361.25;;;-1.96;70.20
22651;BME280;11492;42.646;23.400;2024-01-15T03:43:43;94340.75;;;-1.93;69.98
22651;BME280;11492;42.646;23.400;2024-01-15T03:46:09;94350.25;;;-2.05;69.94
22651;BME280;11492;42.646;23.400;2024-01-15T03:48:35;94352.06;;;-1.97;70.36
22651;BME280;11492;42.646;23.400;2024-01-15T03:51:00;94307.22;;;-2.15;70.24
22651;BME280;11492;42.646;23.400;2024-01-15T03:53:26;94362.63;;;-2.02;70.35
22651;BME280;11492;42.646;23.400;2024-01-15T03:55:52;94353.94;;;-2.09;70.07
22651;BME280;11492;42.646;23.400;2024-01-15T03:58:18;94352.09;;;-2.07;70.14
22651;BME280;11492;42.646;23.400;2024-01-15T04:00:44;94356.69;;;-2.01;70.59
22651;BME280;11492;42.646;23.400;2024-01-15T04:03:09;94348.84;;;-1.99;70.60
22651;BME280;11492;42.646;23.400;2024-01-15T04:05:35;94370.34;;;-2.04;69.74
22651;BME280;11492;42.646;23.400;2024-01-15T04:08:01;94368.38;;;-2.00;70.40
22651;BME280;11492;42.646;23.400;2024-01-15T04:10:26;94321.28;;;-2.22;70.91
22651;BME280;11492;42.646;23.400;2024-01-15T04:12:52;94319.19;;;-2.17;70.66
22651;BME280;11492;42.646;23.400;2024-01-15T04:15:18;94321.59;;;-1.95;70.80
22651;BME280;11492;42.646;23.400;2024-01-15T04:17:44;94329.19;;;-1.95;70.58
22651;BME280;11492;42.646;23.400;2024-01-15T04:20:10;94327.50;;;-2.05;69.89
22651;BME280;11492;42.646;23.400;2024-01-15T04:22:36;94355.06;;;-2.02;70.54
22651;BME280;11492;42.646;23.400;2024-01-15T04:25:03;94315.59;;;-2.14;70.14
22651;BME280;11492;42.646;23.400;2024-01-15T04:27:29;94342.63;;;-1.95;69.95
22651;BME280;11492;42.646;23.400;2024-01-15T04:29:54;94333.00;;;-2.00;70.00
22651;BME280;11492;42.646;23.400;2024-01-15T04:32:20;94340.16;;;-2.05;69.93
22651;BME280;11492;42.646;23.400;2024-01-15T04:34:46;94352.44;;;-2.01;69.26
22651;BME280;11492;42.646;23.400;2024-01-15T04:37:11;94332.25;;;-2.12;69.89
22651;BME280;11492;42.646;23.400;2024-01-15T04:39:38;94347.97;;;-2.08;69.98
22651;BME280;11492;42.646;23.400;2024-01-15T04:42:04;94339.28;;;-2.15;70.21
22651;BME280;11492;42.646;23.400;2024-01-15T04:44:31;94317.88;;;-2.31;70.50
22651;BME280;11492;42.646;23.400;2024-01-15T04:46:57;94340.19;;;-2.16;70.49
22651;BME280;11492;42.646;23.400;2024-01-15T04:49:22;94304.31;;;-2.30;70.62
22651;BME280;11492;42.646;23.400;2024-01-15T04:51:51;94316.31;;;-2.23;70.41
22651;BME280;11492;42.646;23.400;2024-01-15T04:54:17;94336.06;;;-2.17;70.07
22651;BME280;11492;42.646;23.400;2024-01-15T04:56:44;94327.44;;;-2.15;70.61
22651;BME280;11492;42.646;23.400;2024-01-15T04:59:10;94314.06;;;-2.26;70.18
22651;BME280;11492;42.646;23.400;2024-01-15T05:01:36;94315.03;;;-2.38;70.49
22651;BME280;11492;42.646;23.400;2024-01-15T05:04:03;94335.38;;;-2.19;70.62
22651;BME280;11492;42.646;23.400;2024-01-15T05:06:29;94316.66;;;-2.17;70.71
22651;BME280;11492;42.646;23.400;2024-01-15T05:08:55;94319.19;;;-2.17;70.37
22651;BME280;11492;42.646;23.400;2024-01-15T05:11:20;94287.16;;;-2.47;70.22
22651;BME280;11492;42.646;23.400;2024-01-15T05:13:47;94316.56;;;-2.26;70.17
22651;BME280;11492;42.646;23.400;2024-01-15T05:16:12;94307.13;;;-2.24;70.90
22651;BME280;11492;42.646;23.400;2024-01-15T05:18:39;94270.28;;;-2.47;70.87
22651;BME280;11492;42.646;23.400;2024-01-15T05:21:04;94297.97;;;-2.25;70.25
22651;BME280;11492;42.646;23.400;2024-01-15T05:23:31;94275.09;;;-2.24;70.58
22651;BME280;11492;42.646;23.400;2024-01-15T05:25:57;94313.03;;;-2.34;70.51
22651;BME280;11492;42.646;23.400;2024-01-15T05:28:22;94253.53;;;-2.78;72.73
22651;BME280;11492;42.646;23.400;2024-01-15T05:30:48;94295.72;;;-2.39;72.77
22651;BME280;11492;42.646;23.400;2024-01-15T05:33:16;94303.81;;;-2.24;71.78
22651;BME280;11492;42.646;23.400;2024-01-15T05:35:42;94267.03;;;-2.38;71.45
22651;BME280;11492;42.646;23.400;2024-01-15T05:38:07;94293.47;;;-2.22;71.45
22651;BME280;11492;42.646;23.400;2024-01-15T05:40:33;94287.84;;;-2.25;71.37
22651;BME280;11492;42.646;23.400;2024-01-15T05:42:59;94282.31;;;-2.19;71.25
22651;BME280;11492;42.646;23.400;2024-01-15T05:45:26;94294.00;;;-2.18;71.42
22651;BME280;11492;42.646;23.400;2024-01-15T05:47:52;94290.09;;;-2.11;71.19
22651;BME280;11492;42.646;23.400;2024-01-15T05:50:18;94279.63;;;-2.07;71.32
22651;BME280;11492;42.646;23.400;2024-01-15T05:52:43;94282.94;;;-2.06;71.55
22651;BME280;11492;42.646;23.400;2024-01-15T05:55:09;94268.69;;;-2.07;71.79
22651;BME280;11492;42.646;23.400;2024-01-15T05:57:35;94280.03;;;-2.02;71.21
22651;BME280;11492;42.646;23.400;2024-01-15T06:00:02;94272.84;;;-2.06;71.07
22651;BME280;11492;42.646;23.400;2024-01-15T06:02:28;94264.34;;;-2.05;71.23
22651;BME280;11492;42.646;23.400;2024-01-15T06:04:53;94287.75;;;-2.03;71.61
22651;BME280;11492;42.646;23.400;2024-01-15T06:07:19;94285.28;;;-2.14;71.88
22651;BME280;11492;42.646;23.400;2024-01-15T06:09:45;94302.91;;;-2.03;71.36
22651;BME280;11492;42.646;23.400;2024-01-15T06:12:10;94285.41;;;-2.16;71.65
22651;BME280;11492;42.646;23.400;2024-01-15T06:14:36;94303.78;;;-1.94;71.73
22651;BME280;11492;42.646;23.400;2024-01-15T06:17:02;94295.25;;;-1.93;72.04
22651;BME280;11492;42.646;23.400;2024-01-15T06:19:28;94287.81;;;-1.94;71.15
22651;BME280;11492;42.646;23.400;2024-01-15T06:21:53;94278.38;;;-1.92;71.88
22651;BME280;11492;42.646;23.400;2024-01-15T06:24:19;94255.31;;;-1.99;71.26
22651;BME280;11492;42.646;23.400;2024-01-15T06:26:46;94283.91;;;-1.78;70.26
22651;BME280;11492;42.646;23.400;2024-01-15T06:29:12;94236.09;;;-2.10;70.37
22651;BME280;11492;42.646;23.400;2024-01-15T06:31:38;94277.81;;;-1.75;70.94
22651;BME280;11492;42.646;23.400;2024-01-15T06:34:03;94278.25;;;-1.71;70.74
22651;BME280;11492;42.646;23.400;2024-01-15T06:36:29;94279.53;;;-1.76;70.91
22651;BME280;11492;42.646;23.400;2024-01-15T06:38:55;94256.75;;;-1.85;71.06
22651;BME280;11492;42.646;23.400;2024-01-15T06:41:21;94306.00;;;-1.60;70.46
22651;BME280;11492;42.646;23.400;2024-01-15T06:43:48;94251.75;;;-1.67;70.90
22651;BME280;11492;42.646;23.400;2024-01-15T06:46:22;94276.25;;;-1.38;70.38
22651;BME280;11492;42.646;23.400;2024-01-15T06:48:48;94280.56;;;-1.29;70.19
22651;BME280;11492;42.646;23.400;2024-01-15T06:51:15;94295.91;;;-1.21;69.98
22651;BME280;11492;42.646;23.400;2024-01-15T06:53:42;94285.03;;;-1.12;70.07
22651;BME280;11492;42.646;23.400;2024-01-15T06:56:08;94274.91;;;-1.12;69.84
22651;BME280;11492;42.646;23.400;2024-01-15T06:58:33;94284.41;;;-0.96;69.75
22651;BME280;11492;42.646;23.400;2024-01-15T07:00:59;94289.34;;;-0.85;68.92
22651;BME280;11492;42.646;23.400;2024-01-15T07:03:27;94292.06;;;-0.77;69.30
22651;BME280;11492;42.646;23.400;2024-01-15T07:05:52;94294.84;;;-0.71;69.19
22651;BME280;11492;42.646;23.400;2024-01-15T07:08:19;94286.19;;;-0.68;68.86
22651;BME280;11492;42.646;23.400;2024-01-15T07:10:45;94303.41;;;-0.53;69.13
22651;BME280;11492;42.646;23.400;2024-01-15T07:13:11;94271.53;;;-0.65;67.68
22651;BME280;11492;42.646;23.400;2024-01-15T07:15:37;94268.47;;;-0.59;67.87
22651;BME280;11492;42.646;23.400;2024-01-15T07:18:02;94247.78;;;-0.64;67.62
22651;BME280;11492;42.646;23.400;2024-01-15T07:20:28;94295.56;;;-0.31;67.60
22651;BME280;11492;42.646;23.400;2024-01-15T07:22:54;94310.91;;;-0.24;67.62
22651;BME280;11492;42.646;23.400;2024-01-15T07:25:20;94304.75;;;-0.21;67.05
22651;BME280;11492;42.646;23.400;2024-01-15T07:27:46;94290.66;;;-0.14;66.98
22651;BME280;11492;42.646;23.400;2024-01-15T07:30:12;94281.56;;;-0.07;66.84
22651;BME280;11492;42.646;23.400;2024-01-15T07:32:38;94208.63;;;-0.50;66.83
22651;BME280;11492;42.646;23.400;2024-01-15T07:35:04;94247.00;;;-0.18;66.70
22651;BME280;11492;42.646;23.400;2024-01-15T07:37:31;94268.22;;;-0.09;66.85
22651;BME280;11492;42.646;23.400;2024-01-15T07:39:56;94260.63;;;-0.09;67.25
22651;BME280;11492;42.646;23.400;2024-01-15T07:42:22;94268.72;;;0.03;66.23
22651;BME280;11492;42.646;23.400;2024-01-15T07:44:48;94267.94;;;-0.06;66.93
22651;BME280;11492;42.646;23.400;2024-01-15T07:47:14;94235.66;;;-0.23;65.82
22651;BME280;11492;42.646;23.400;2024-01-15T07:49:39;94290.34;;;0.17;66.19
22651;BME280;11492;42.646;23.400;2024-01-15T07:52:05;94294.22;;;0.11;65.91
22651;BME280;11492;42.646;23.400;2024-01-15T07:54:31;94308.66;;;0.11;66.05
22651;BME280;11492;42.646;23.400;2024-01-15T07:57:00;94301.31;;;-0.01;67.17
22651;BME280;11492;42.646;23.400;2024-01-15T07:59:26;94293.03;;;-0.22;68.01
22651;BME280;11492;42.646;23.400;2024-01-15T08:01:52;94272.59;;;-0.02;67.65
22651;BME280;11492;42.646;23.400;2024-01-15T08:04:19;94300.91;;;0.03;67.45
22651;BME280;11492;42.646;23.400;2024-01-15T08:06:44;94254.47;;;-0.16;67.96
22651;BME280;11492;42.646;23.400;2024-01-15T08:09:10;94267.38;;;0.18;67.32
22651;BME280;11492;42.646;23.400;2024-01-15T08:11:39;94273.38;;;0.26;65.81
22651;BME280;11492;42.646;23.400;2024-01-15T08:14:07;94250.66;;;0.25;67.42
22651;BME280;11492;42.646;23.400;2024-01-15T08:16:33;94297.50;;;0.40;66.92
22651;BME280;11492;42.646;23.400;2024-01-15T08:18:59;94263.16;;;0.45;66.68
22651;BME280;11492;42.646;23.400;2024-01-15T08:21:24;94269.53;;;0.68;63.43
22651;BME280;11492;42.646;23.400;2024-01-15T08:23:50;94256.09;;;0.84;63.06
22651;BME280;11492;42.646;23.400;2024-01-15T08:26:16;94265.66;;;0.99;64.29
22651;BME280;11492;42.646;23.400;2024-01-15T08:28:41;94234.91;;;0.93;63.18
22651;BME280;11492;42.646;23.400;2024-01-15T08:31:07;94256.09;;;1.11;64.35
22651;BME280;11492;42.646;23.400;2024-01-15T08:33:33;94269.25;;;1.23;63.08
22651;BME280;11492;42.646;23.400;2024-01-15T08:35:58;94257.00;;;1.36;63.18
22651;BME280;11492;42.646;23.400;2024-01-15T08:38:24;94263.13;;;1.60;63.23
22651;BME280;11492;42.646;23.400;2024-01-15T08:40:50;94259.81;;;1.77;63.19
22651;BME280;11492;42.646;23.400;2024-01-15T08:43:18;94234.50;;;1.93;62.74
22651;BME280;11492;42.646;23.400;2024-01-15T08:45:44;94237.66;;;2.12;61.12
22651;BME280;11492;42.646;23.400;2024-01-15T08:48:10;94224.47;;;2.16;60.87
22651;BME280;11492;42.646;23.400;2024-01-15T08:50:36;94240.81;;;2.31;61.13
22651;BME280;11492;42.646;23.400;2024-01-15T08:53:02;94228.59;;;2.34;60.35
22651;BME280;11492;42.646;23.400;2024-01-15T08:55:28;94225.03;;;2.52;60.23
22651;BME280;11492;42.646;23.400;2024-01-15T08:57:53;94226.84;;;2.60;60.72
22651;BME280;11492;42.646;23.400;2024-01-15T09:00:19;94202.66;;;2.64;60.25
22651;BME280;11492;42.646;23.400;2024-01-15T09:02:45;94173.19;;;2.61;59.85
22651;BME280;11492;42.646;23.400;2024-01-15T09:05:11;94211.63;;;3.08;59.52
22651;BME280;11492;42.646;23.400;2024-01-15T09:07:38;94209.66;;;3.43;58.88
22651;BME280;11492;42.646;23.400;2024-01-15T09:10:04;94207.44;;;3.56;58.19
22651;BME280;11492;42.646;23.400;2024-01-15T09:12:30;94185.28;;;3.80;57.55
22651;BME280;11492;42.646;23.400;2024-01-15T09:14:55;94175.63;;;4.45;54.94
22651;BME280;11492;42.646;23.400;2024-01-15T09:17:21;94166.66;;;5.62;52.70
22651;BME280;11492;42.646;23.400;2024-01-15T09:19:49;94159.44;;;6.60;47.62
22651;BME280;11492;42.646;23.400;2024-01-15T09:22:15;94137.31;;;7.01;46.39
22651;BME280;11492;42.646;23.400;2024-01-15T09:24:44;94142.97;;;6.83;46.04
22651;BME280;11492;42.646;23.400;2024-01-15T09:27:11;94114.50;;;6.35;46.92
22651;BME280;11492;42.646;23.400;2024-01-15T09:29:36;94126.53;;;6.35;47.10
22651;BME280;11492;42.646;23.400;2024-01-15T09:32:05;94119.31;;;6.02;47.45
22651;BME280;11492;42.646;23.400;2024-01-15T09:34:35;94133.91;;;6.01;48.07
22651;BME280;11492;42.646;23.400;2024-01-15T09:37:01;94083.28;;;5.23;48.60
22651;BME280;11492;42.646;23.400;2024-01-15T09:39:28;94131.88;;;5.23;49.91
22651;BME280;11492;42.646;23.400;2024-01-15T09:41:54;94100.47;;;4.77;50.35
22651;BME280;11492;42.646;23.400;2024-01-15T09:44:21;94105.38;;;4.48;51.61
22651;BME280;11492;42.646;23.400;2024-01-15T09:46:47;94115.66;;;4.33;52.04
22651;BME280;11492;42.646;23.400;2024-01-15T09:49:16;94128.75;;;4.30;52.06
22651;BME280;11492;42.646;23.400;2024-01-15T09:51:42;94100.72;;;4.06;52.85
22651;BME280;11492;42.646;23.400;2024-01-15T09:54:08;94098.47;;;4.03;52.88
22651;BME280;11492;42.646;23.400;2024-01-15T09:56:35;94094.81;;;3.98;53.17
22651;BME280;11492;42.646;23.400;2024-01-15T09:59:01;94102.34;;;3.99;52.75
22651;BME280;11492;42.646;23.400;2024-01-15T10:01:28;94094.03;;;3.82;53.33
22651;BME280;11492;42.646;23.400;2024-01-15T10:03:54;94085.13;;;3.70;53.79
22651;BME280;11492;42.646;23.400;2024-01-15T10:06:21;94054.03;;;3.51;54.04
22651;BME280;11492;42.646;23.400;2024-01-15T10:08:49;94081.94;;;3.60;53.95
22651;BME280;11492;42.646;23.400;2024-01-15T10:11:15;94078.94;;;3.49;53.37
22651;BME280;11492;42.646;23.400;2024-01-15T10:13:43;94094.72;;;3.45;54.11
22651;BME280;11492;42.646;23.400;2024-01-15T10:16:09;94091.19;;;3.30;54.83
22651;BME280;11492;42.646;23.400;2024-01-15T10:18:36;94063.78;;;3.24;54.79
22651;BME280;11492;42.646;23.400;2024-01-15T10:21:03;94060.44;;;3.23;55.52
22651;BME280;11492;42.646;23.400;2024-01-15T10:23:31;94085.13;;;3.07;55.09
22651;BME280;11492;42.646;23.400;2024-01-15T10:26:00;94056.75;;;3.02;55.43
22651;BME280;11492;42.646;23.400;2024-01-15T10:28:26;94031.09;;;2.80;56.12
22651;BME280;11492;42.646;23.400;2024-01-15T10:30:55;94047.50;;;2.94;56.33
22651;BME280;11492;42.646;23.400;2024-01-15T10:33:25;94044.31;;;2.92;56.08
22651;BME280;11492;42.646;23.400;2024-01-15T10:35:57;94030.31;;;2.96;56.15
22651;BME280;11492;42.646;23.400;2024-01-15T10:38:24;94018.50;;;2.95;55.20
22651;BME280;11492;42.646;23.400;2024-01-15T10:40:56;93997.19;;;2.80;56.16
22651;BME280;11492;42.646;23.400;2024-01-15T10:43:23;94005.13;;;2.93;56.14
22651;BME280;11492;42.646;23.400;2024-01-15T10:45:50;94046.41;;;3.04;55.90
22651;BME280;11492;42.646;23.400;2024-01-15T10:48:19;94036.06;;;3.05;56.73
22651;BME280;11492;42.646;23.400;2024-01-15T10:50:45;94033.81;;;3.18;56.69
22651;BME280;11492;42.646;23.400;2024-01-15T10:53:13;94032.88;;;3.27;55.16
22651;BME280;11492;42.646;23.400;2024-01-15T10:55:39;94010.88;;;3.34;54.30
22651;BME280;11492;42.646;23.400;2024-01-15T10:58:07;94031.28;;;3.42;55.18
22651;BME280;11492;42.646;23.400;2024-01-15T11:00:38;94013.75;;;3.07;54.79
22651;BME280;11492;42.646;23.400;2024-01-15T11:03:06;93991.13;;;3.12;55.50
22651;BME280;11492;42.646;23.400;2024-01-15T11:05:41;94000.97;;;3.47;54.89
22651;BME280;11492;42.646;23.400;2024-01-15T11:08:08;94026.78;;;3.59;55.12
22651;BME280;11492;42.646;23.400;2024-01-15T11:10:44;93960.63;;;3.50;54.29
22651;BME280;11492;42.646;23.400;2024-01-15T11:13:21;94010.97;;;3.72;53.97
22651;BME280;11492;42.646;23.400;2024-01-15T11:18:27;93988.44;;;3.91;54.25
22651;BME280;11492;42.646;23.400;2024-01-15T11:23:45;93976.53;;;4.13;53.77
22651;BME280;11492;42.646;23.400;2024-01-15T11:26:48;93974.03;;;4.05;53.73
22651;BME280;11492;42.646;23.400;2024-01-15T11:29:31;93960.53;;;4.19;53.42
22651;BME280;11492;42.646;23.400;2024-01-15T11:32:02;93968.06;;;4.21;52.94
22651;BME280;11492;42.646;23.400;2024-01-15T11:35:11;93970.91;;;4.25;52.96
22651;BME280;11492;42.646;23.400;2024-01-15T11:38:00;93981.84;;;4.34;53.21
22651;BME280;11492;42.646;23.400;2024-01-15T11:42:58;93967.47;;;4.41;53.23
22651;BME280;11492;42.646;23.400;2024-01-15T11:45:24;93952.06;;;4.26;53.04
22651;BME280;11492;42.646;23.400;2024-01-15T11:48:14;93912.41;;;4.08;52.74
22651;BME280;11492;42.646;23.400;2024-01-15T11:50:47;93938.50;;;4.26;52.95
22651;BME280;11492;42.646;23.400;2024-01-15T11:53:25;93966.03;;;4.38;53.11
22651;BME280;11492;42.646;23.400;2024-01-15T11:55:58;93938.22;;;4.13;53.42
22651;BME280;11492;42.646;23.400;2024-01-15T11:58:24;93951.06;;;3.97;53.80
22651;BME280;11492;42.646;23.400;2024-01-15T12:00:51;93902.06;;;4.02;55.04
22651;BME280;11492;42.646;23.400;2024-01-15T12:03:23;93925.13;;;4.16;55.32
22651;BME280;11492;42.646;23.400;2024-01-15T12:05:49;93921.31;;;4.12;53.79
22651;BME280;11492;42.646;23.400;2024-01-15T12:08:21;93900.00;;;3.97;54.59
22651;BME280;11492;42.646;23.400;2024-01-15T12:10:47;93950.31;;;4.19;54.12
22651;BME280;11492;42.646;23.400;2024-01-15T12:13:14;93883.13;;;3.59;55.80
22651;BME280;11492;42.646;23.400;2024-01-15T12:15:45;93890.81;;;3.89;56.00
22651;BME280;11492;42.646;23.400;2024-01-15T12:18:15;93888.97;;;4.05;55.82
22651;BME280;11492;42.646;23.400;2024-01-15T12:20:43;93881.13;;;4.14;55.73
22651;BME280;11492;42.646;23.400;2024-01-15T12:23:09;93903.94;;;4.38;54.63
22651;BME280;11492;42.646;23.400;2024-01-15T12:25:39;93897.84;;;4.39;55.54
22651;BME280;11492;42.646;23.400;2024-01-15T12:28:05;93903.91;;;4.46;55.86
22651;BME280;11492;42.646;23.400;2024-01-15T12:30:33;93880.78;;;4.39;55.28
22651;BME280;11492;42.646;23.400;2024-01-15T12:33:03;93882.66;;;4.45;54.95
22651;BME280;11492;42.646;23.400;2024-01-15T12:35:30;93917.47;;;4.68;54.92
22651;BME280;11492;42.646;23.400;2024-01-15T12:37:56;93897.72;;;4.62;54.61
22651;BME280;11492;42.646;23.400;2024-01-15T12:40:22;93886.47;;;4.71;54.03
22651;BME280;11492;42.646;23.400;2024-01-15T12:42:49;93898.16;;;4.88;54.26
22651;BME280;11492;42.646;23.400;2024-01-15T12:45:15;93885.63;;;4.93;54.13
22651;BME280;11492;42.646;23.400;2024-01-15T12:47:41;93885.91;;;4.97;54.30
22651;BME280;11492;42.646;23.400;2024-01-15T12:50:10;93866.50;;;4.89;54.27
22651;BME280;11492;42.646;23.400;2024-01-15T12:52:37;93870.16;;;5.08;53.87
22651;BME280;11492;42.646;23.400;2024-01-15T12:55:06;93868.75;;;5.20;53.71
22651;BME280;11492;42.646;23.400;2024-01-15T12:57:34;93839.25;;;4.96;53.81
22651;BME280;11492;42.646;23.400;2024-01-15T13:00:00;93874.34;;;5.01;54.45